createdAt,value
2024-02-17T00:00:08.278Z,8.71
2024-02-17T00:02:35.429Z,8.70
2024-02-17T00:05:02.820Z,8.71
2024-02-17T00:07:30.080Z,8.70
2024-02-17T00:09:56.706Z,8.71
2024-02-17T00:12:23.196Z,8.71
2024-02-17T00:14:49.938Z,8.71
2024-02-17T00:17:16.552Z,8.71
2024-02-17T00:19:43.255Z,8.73
2024-02-17T00:22:09.783Z,8.73
2024-02-17T00:24:36.309Z,8.73
2024-02-17T00:27:03.596Z,8.73
2024-02-17T00:29:30.419Z,8.71
2024-02-17T00:31:56.917Z,8.70
2024-02-17T00:34:24.861Z,8.71
2024-02-17T00:36:51.882Z,8.71
2024-02-17T00:39:18.406Z,8.71
2024-02-17T00:41:45.549Z,8.70
2024-02-17T00:44:12.321Z,8.71
2024-02-17T00:46:38.830Z,8.71
2024-02-17T00:49:05.409Z,8.72
2024-02-17T00:51:32.120Z,8.72
2024-02-17T00:53:58.884Z,8.72
2024-02-17T00:56:25.492Z,8.72
2024-02-17T00:58:52.185Z,8.72
2024-02-17T01:01:26.204Z,8.71
2024-02-17T01:03:59.860Z,8.71
2024-02-17T01:06:26.776Z,8.70
2024-02-17T01:08:53.530Z,8.71
2024-02-17T01:11:20.343Z,8.68
2024-02-17T01:13:47.618Z,8.66
2024-02-17T01:16:14.476Z,8.66
2024-02-17T01:18:41.301Z,8.67
2024-02-17T01:21:08.026Z,8.66
2024-02-17T01:23:34.581Z,8.67
2024-02-17T01:26:01.175Z,8.67
2024-02-17T01:28:27.644Z,8.66
2024-02-17T01:30:54.115Z,8.66
2024-02-17T01:33:20.715Z,8.65
2024-02-17T01:35:47.210Z,8.64
2024-02-17T01:38:13.658Z,8.65
2024-02-17T01:40:40.141Z,8.65
2024-02-17T01:43:09.530Z,8.65
2024-02-17T01:45:36.983Z,8.66
2024-02-17T01:48:04.152Z,8.67
2024-02-17T01:50:31.230Z,8.67
2024-02-17T01:52:59.954Z,8.66
2024-02-17T01:55:28.145Z,8.66
2024-02-17T01:57:55.152Z,8.64
2024-02-17T02:00:23.134Z,8.65
2024-02-17T02:02:50.793Z,8.65
2024-02-17T02:05:18.276Z,8.66
2024-02-17T02:07:45.164Z,8.66
2024-02-17T02:10:12.035Z,8.66
2024-02-17T02:12:38.660Z,8.67
2024-02-17T02:15:11.877Z,8.67
2024-02-17T02:17:39.172Z,8.67
2024-02-17T02:20:11.635Z,8.70
2024-02-17T02:22:39.594Z,8.70
2024-02-17T02:25:07.819Z,8.71
2024-02-17T02:27:40.999Z,8.71
2024-02-17T02:30:08.309Z,8.72
2024-02-17T02:32:34.878Z,8.71
2024-02-17T02:35:01.425Z,8.72
2024-02-17T02:37:28.864Z,8.73
2024-02-17T02:39:55.319Z,8.72
2024-02-17T02:42:21.918Z,8.73
2024-02-17T02:44:48.500Z,8.73
2024-02-17T02:47:16.052Z,8.74
2024-02-17T02:49:42.517Z,8.75
2024-02-17T02:52:09.074Z,8.77
2024-02-17T02:54:35.674Z,8.77
2024-02-17T02:57:03.012Z,8.76
2024-02-17T02:59:29.464Z,8.74
2024-02-17T03:01:55.961Z,8.75
2024-02-17T03:04:22.885Z,8.74
2024-02-17T03:06:49.645Z,8.76
2024-02-17T03:09:16.225Z,8.76
2024-02-17T03:11:43.672Z,8.77
2024-02-17T03:14:10.337Z,8.77
2024-02-17T03:16:40.209Z,8.75
2024-02-17T03:19:07.203Z,8.77
2024-02-17T03:21:35.616Z,8.76
2024-02-17T03:24:03.956Z,8.76
2024-02-17T03:26:30.447Z,8.76
2024-02-17T03:28:56.868Z,8.76
2024-02-17T03:31:25.028Z,8.77
2024-02-17T03:33:55.792Z,8.77
2024-02-17T03:36:22.680Z,8.76
2024-02-17T03:38:49.377Z,8.76
2024-02-17T03:41:16.588Z,8.75
2024-02-17T03:43:43.405Z,8.74
2024-02-17T03:46:09.934Z,8.74
2024-02-17T03:48:37.551Z,8.74
2024-02-17T03:51:05.198Z,8.74
2024-02-17T03:53:31.769Z,8.73
2024-02-17T03:55:58.319Z,8.73
2024-02-17T03:58:24.899Z,8.72
2024-02-17T04:00:51.719Z,8.71
2024-02-17T04:03:18.391Z,8.70
2024-02-17T04:05:44.968Z,8.70
2024-02-17T04:08:11.545Z,8.68
2024-02-17T04:10:39.191Z,8.69
2024-02-17T04:13:05.836Z,8.70
2024-02-17T04:15:32.314Z,8.69
2024-02-17T04:17:59.020Z,8.71
2024-02-17T04:20:25.687Z,8.71
2024-02-17T04:22:52.655Z,8.70
2024-02-17T04:25:19.357Z,8.70
2024-02-17T04:27:46.028Z,8.70
2024-02-17T04:30:13.100Z,8.72
2024-02-17T04:32:39.645Z,8.73
2024-02-17T04:35:06.684Z,8.71
2024-02-17T04:37:33.338Z,8.70
2024-02-17T04:39:59.882Z,8.70
2024-02-17T04:42:26.435Z,8.68
2024-02-17T04:44:53.134Z,8.68
2024-02-17T04:47:19.547Z,8.70
2024-02-17T04:49:46.062Z,8.69
2024-02-17T04:52:12.520Z,8.68
2024-02-17T04:54:38.988Z,8.68
2024-02-17T04:57:05.601Z,8.68
2024-02-17T04:59:32.102Z,8.67
2024-02-17T05:01:58.602Z,8.67
2024-02-17T05:04:25.246Z,8.67
2024-02-17T05:06:52.035Z,8.66
2024-02-17T05:09:18.701Z,8.66
2024-02-17T05:11:45.259Z,8.67
2024-02-17T05:14:16.778Z,8.65
2024-02-17T05:16:46.331Z,8.66
2024-02-17T05:19:16.339Z,8.65
2024-02-17T05:21:46.084Z,8.64
2024-02-17T05:24:12.717Z,8.63
2024-02-17T05:26:40.556Z,8.62
2024-02-17T05:29:07.625Z,8.63
2024-02-17T05:31:35.557Z,8.62
2024-02-17T05:34:04.183Z,8.64
2024-02-17T05:36:31.042Z,8.63
2024-02-17T05:38:57.623Z,8.65
2024-02-17T05:41:24.370Z,8.64
2024-02-17T05:43:50.979Z,8.65
2024-02-17T05:46:17.645Z,8.65
2024-02-17T05:48:45.996Z,8.65
2024-02-17T05:51:12.701Z,8.64
2024-02-17T05:53:40.267Z,8.64
2024-02-17T05:56:07.461Z,8.63
2024-02-17T05:58:34.055Z,8.63
2024-02-17T06:01:02.586Z,8.62
2024-02-17T06:03:29.437Z,8.61
2024-02-17T06:05:56.164Z,8.61
2024-02-17T06:08:23.126Z,8.61
2024-02-17T06:10:50.063Z,8.58
2024-02-17T06:13:16.801Z,8.57
2024-02-17T06:15:44.699Z,8.56
2024-02-17T06:18:29.876Z,8.56
2024-02-17T06:21:11.893Z,8.54
2024-02-17T06:23:38.916Z,8.54
2024-02-17T06:26:05.540Z,8.52
2024-02-17T06:28:31.987Z,8.50
2024-02-17T06:30:58.465Z,8.50
2024-02-17T06:33:25.093Z,8.49
2024-02-17T06:35:51.835Z,8.48
2024-02-17T06:38:18.814Z,8.45
2024-02-17T06:40:46.459Z,8.46
2024-02-17T06:43:12.931Z,8.47
2024-02-17T06:45:40.166Z,8.46
2024-02-17T06:48:07.099Z,8.45
2024-02-17T06:50:33.543Z,8.44
2024-02-17T06:52:59.992Z,8.44
2024-02-17T06:55:26.438Z,8.43
2024-02-17T06:57:52.924Z,8.41
2024-02-17T07:00:20.175Z,8.42
2024-02-17T07:02:46.873Z,8.41
2024-02-17T07:05:15.862Z,8.40
2024-02-17T07:07:42.363Z,8.40
2024-02-17T07:10:09.642Z,8.40
2024-02-17T07:12:36.733Z,8.39
2024-02-17T07:15:03.784Z,8.40
2024-02-17T07:17:30.318Z,8.41
2024-02-17T07:19:57.036Z,8.41
2024-02-17T07:22:23.972Z,8.44
2024-02-17T07:24:52.384Z,8.44
2024-02-17T07:27:18.870Z,8.46
2024-02-17T07:29:45.386Z,8.50
2024-02-17T07:32:12.233Z,8.50
2024-02-17T07:34:43.171Z,8.52
2024-02-17T07:37:09.824Z,8.54
2024-02-17T07:39:39.009Z,8.56
2024-02-17T07:42:08.005Z,8.58
2024-02-17T07:44:37.061Z,8.60
2024-02-17T07:47:04.480Z,8.62
2024-02-17T07:49:32.518Z,8.63
2024-02-17T07:51:59.898Z,8.66
2024-02-17T07:54:26.433Z,8.68
2024-02-17T07:56:52.870Z,8.70
2024-02-17T07:59:19.303Z,8.72
2024-02-17T08:01:45.859Z,8.73
2024-02-17T08:04:12.492Z,8.74
2024-02-17T08:06:39.100Z,8.78
2024-02-17T08:09:07.607Z,8.81
2024-02-17T08:11:37.096Z,8.86
2024-02-17T08:14:05.715Z,8.87
2024-02-17T08:16:33.181Z,8.92
2024-02-17T08:18:59.821Z,8.93
2024-02-17T08:21:26.496Z,8.95
2024-02-17T08:23:53.012Z,8.98
2024-02-17T08:26:20.937Z,9.00
2024-02-17T08:28:47.616Z,9.06
2024-02-17T08:31:14.230Z,9.11
2024-02-17T08:33:40.985Z,9.17
2024-02-17T08:36:07.966Z,9.22
2024-02-17T08:38:34.740Z,9.26
2024-02-17T08:41:03.982Z,9.28
2024-02-17T08:43:30.635Z,9.36
2024-02-17T08:45:57.661Z,9.40
2024-02-17T08:48:24.517Z,9.41
2024-02-17T08:50:52.767Z,9.41
2024-02-17T08:53:19.993Z,9.45
2024-02-17T08:55:46.537Z,9.48
2024-02-17T08:58:13.478Z,9.52
2024-02-17T09:00:40.432Z,9.55
2024-02-17T09:03:07.594Z,9.57
2024-02-17T09:05:36.872Z,9.63
2024-02-17T09:08:03.593Z,9.69
2024-02-17T09:10:30.049Z,9.73
2024-02-17T09:12:56.663Z,9.74
2024-02-17T09:15:23.381Z,9.77
2024-02-17T09:17:50.155Z,9.81
2024-02-17T09:20:16.938Z,9.83
2024-02-17T09:22:43.535Z,9.88
2024-02-17T09:25:10.238Z,9.93
2024-02-17T09:27:36.840Z,10.02
2024-02-17T09:30:05.474Z,10.06
2024-02-17T09:32:32.051Z,10.14
2024-02-17T09:34:58.602Z,10.10
2024-02-17T09:37:25.109Z,10.13
2024-02-17T09:39:51.665Z,10.14
2024-02-17T09:42:18.449Z,10.14
2024-02-17T09:44:44.948Z,10.19
2024-02-17T09:47:12.285Z,10.27
2024-02-17T09:49:40.307Z,10.31
2024-02-17T09:52:07.532Z,10.37
2024-02-17T09:54:34.993Z,10.40
2024-02-17T09:57:01.922Z,10.47
2024-02-17T09:59:28.376Z,10.51
2024-02-17T10:01:55.042Z,10.59
2024-02-17T10:04:23.768Z,10.69
2024-02-17T10:07:02.086Z,10.75
2024-02-17T10:09:31.025Z,10.80
2024-02-17T10:11:59.935Z,10.87
2024-02-17T10:14:28.678Z,10.88
2024-02-17T10:16:59.938Z,10.89
2024-02-17T10:19:26.708Z,10.92
2024-02-17T10:21:54.767Z,10.95
2024-02-17T10:24:22.776Z,10.95
2024-02-17T10:26:56.166Z,10.98
2024-02-17T10:29:24.878Z,11.10
2024-02-17T10:31:51.666Z,11.17
2024-02-17T10:34:18.746Z,11.24
2024-02-17T10:36:45.540Z,11.26
2024-02-17T10:39:14.917Z,11.22
2024-02-17T10:41:41.509Z,11.26
2024-02-17T10:44:08.056Z,11.29
2024-02-17T10:46:38.387Z,11.31
2024-02-17T10:49:29.015Z,11.26
2024-02-17T10:52:04.963Z,11.26
2024-02-17T10:54:56.188Z,11.33
2024-02-17T10:57:23.787Z,11.49
2024-02-17T10:59:55.209Z,11.52
2024-02-17T11:02:27.017Z,11.64
2024-02-17T11:04:54.049Z,11.70
2024-02-17T11:07:21.275Z,11.72
2024-02-17T11:09:47.862Z,11.78
2024-02-17T11:12:49.156Z,11.78
2024-02-17T11:15:15.707Z,11.72
2024-02-17T11:17:52.982Z,11.65
2024-02-17T11:20:21.169Z,11.65
2024-02-17T11:22:50.872Z,11.66
2024-02-17T11:25:31.383Z,11.70
2024-02-17T11:27:59.499Z,11.68
2024-02-17T11:30:26.317Z,11.73
2024-02-17T11:32:57.554Z,11.70
2024-02-17T11:35:25.217Z,11.73
2024-02-17T11:37:54.974Z,11.81
2024-02-17T11:40:21.948Z,11.85
2024-02-17T11:42:48.636Z,11.87
2024-02-17T11:45:17.855Z,11.93
2024-02-17T11:47:44.353Z,11.91
2024-02-17T11:50:14.603Z,11.92
2024-02-17T11:52:42.175Z,11.88
2024-02-17T11:55:09.831Z,11.82
2024-02-17T11:57:40.855Z,11.80
2024-02-17T12:00:12.451Z,11.74
2024-02-17T12:02:48.334Z,11.72
2024-02-17T12:05:17.083Z,11.70
2024-02-17T12:07:43.712Z,11.76
2024-02-17T12:10:11.004Z,11.77
2024-02-17T12:12:40.447Z,11.84
2024-02-17T12:15:16.385Z,11.93
2024-02-17T12:17:46.635Z,12.03
2024-02-17T12:20:15.360Z,12.11
2024-02-17T12:22:44.831Z,12.16
2024-02-17T12:25:11.697Z,12.14
2024-02-17T12:27:39.314Z,12.15
2024-02-17T12:30:07.864Z,12.12
2024-02-17T12:32:41.416Z,12.11
2024-02-17T12:35:11.507Z,12.20
2024-02-17T12:37:44.748Z,12.21
2024-02-17T12:40:19.996Z,12.21
2024-02-17T12:42:51.880Z,12.18
2024-02-17T12:45:33.340Z,12.08
2024-02-17T12:48:04.468Z,12.08
2024-02-17T12:50:32.444Z,12.10
2024-02-17T12:53:12.893Z,12.06
2024-02-17T12:55:39.308Z,12.08
2024-02-17T12:58:06.878Z,12.01
2024-02-17T13:00:33.430Z,11.97
2024-02-17T13:02:59.877Z,12.01
2024-02-17T13:05:27.093Z,11.98
2024-02-17T13:07:54.005Z,11.91
2024-02-17T13:10:20.654Z,11.87
2024-02-17T13:12:47.239Z,11.91
2024-02-17T13:15:17.755Z,11.94
2024-02-17T13:17:44.387Z,12.00
2024-02-17T13:20:13.548Z,12.13
2024-02-17T13:22:43.092Z,12.14
2024-02-17T13:25:12.830Z,12.23
2024-02-17T13:27:42.244Z,12.25
2024-02-17T13:30:11.260Z,12.34
2024-02-17T13:32:43.893Z,12.36
2024-02-17T13:37:38.485Z,12.29
2024-02-17T13:40:07.854Z,12.28
2024-02-17T13:42:35.497Z,12.27
2024-02-17T13:45:01.991Z,12.23
2024-02-17T13:47:34.181Z,12.30
2024-02-17T13:50:01.318Z,12.37
2024-02-17T13:52:27.979Z,12.35
2024-02-17T13:54:55.276Z,12.39
2024-02-17T13:57:21.838Z,12.34
2024-02-17T13:59:48.385Z,12.36
2024-02-17T14:02:14.919Z,12.35
2024-02-17T14:04:41.390Z,12.31
2024-02-17T14:07:08.445Z,12.29
2024-02-17T14:09:35.105Z,12.27
2024-02-17T14:12:01.716Z,12.28
2024-02-17T14:14:28.246Z,12.31
2024-02-17T14:16:58.026Z,12.35
2024-02-17T14:19:25.908Z,12.37
2024-02-17T14:21:52.491Z,12.38
2024-02-17T14:24:20.312Z,12.41
2024-02-17T14:26:47.001Z,12.41
2024-02-17T14:29:13.488Z,12.43
2024-02-17T14:31:43.117Z,12.44
2024-02-17T14:34:09.620Z,12.45
2024-02-17T14:36:36.577Z,12.49
2024-02-17T14:39:03.734Z,12.42
2024-02-17T14:41:30.289Z,12.38
2024-02-17T14:43:56.729Z,12.33
2024-02-17T14:46:23.901Z,12.35
2024-02-17T14:48:50.549Z,12.34
2024-02-17T14:51:17.304Z,12.31
2024-02-17T14:53:43.803Z,12.29
2024-02-17T14:56:10.551Z,12.31
2024-02-17T14:58:37.365Z,12.30
2024-02-17T15:01:04.146Z,12.30
2024-02-17T15:03:30.880Z,12.34
2024-02-17T15:05:58.784Z,12.33
2024-02-17T15:08:25.401Z,12.26
2024-02-17T15:10:51.885Z,12.21
2024-02-17T15:13:18.522Z,12.20
2024-02-17T15:15:49.783Z,12.18
2024-02-17T15:18:26.482Z,12.19
2024-02-17T15:20:53.614Z,12.18
2024-02-17T15:23:20.131Z,12.12
2024-02-17T15:25:48.867Z,12.05
2024-02-17T15:28:16.420Z,12.08
2024-02-17T15:30:45.948Z,12.03
2024-02-17T15:33:16.222Z,11.99
2024-02-17T15:35:46.670Z,11.99
2024-02-17T15:38:16.462Z,12.01
2024-02-17T15:40:44.120Z,11.98
2024-02-17T15:43:10.711Z,11.97
2024-02-17T15:45:37.188Z,11.93
2024-02-17T15:48:03.982Z,11.89
2024-02-17T15:50:30.400Z,11.86
2024-02-17T15:52:56.844Z,11.82
2024-02-17T15:55:23.584Z,11.80
2024-02-17T15:57:52.002Z,11.75
2024-02-17T16:00:22.623Z,11.75
2024-02-17T16:02:50.396Z,11.77
2024-02-17T16:05:17.506Z,11.75
2024-02-17T16:07:44.219Z,11.73
2024-02-17T16:10:11.002Z,11.73
2024-02-17T16:12:38.239Z,11.72
2024-02-17T16:15:08.634Z,11.68
2024-02-17T16:17:35.407Z,11.67
2024-02-17T16:20:05.582Z,11.65
2024-02-17T16:22:32.088Z,11.59
2024-02-17T16:24:58.869Z,11.53
2024-02-17T16:27:25.439Z,11.45
2024-02-17T16:29:52.085Z,11.38
2024-02-17T16:32:18.649Z,11.32
2024-02-17T16:34:47.145Z,11.22
2024-02-17T16:37:13.629Z,11.12
2024-02-17T16:39:40.113Z,11.04
2024-02-17T16:42:06.558Z,10.97
2024-02-17T16:44:33.751Z,10.93
2024-02-17T16:47:00.373Z,10.86
2024-02-17T16:49:26.949Z,10.81
2024-02-17T16:51:53.866Z,10.77
2024-02-17T16:54:20.455Z,10.72
2024-02-17T16:56:47.253Z,10.65
2024-02-17T16:59:14.474Z,10.56
2024-02-17T17:01:41.032Z,10.46
2024-02-17T17:04:07.782Z,10.45
2024-02-17T17:06:35.456Z,10.42
2024-02-17T17:09:02.045Z,10.40
2024-02-17T17:11:30.672Z,10.43
2024-02-17T17:13:57.833Z,10.43
2024-02-17T17:16:24.871Z,10.45
2024-02-17T17:18:51.716Z,10.47
2024-02-17T17:21:19.004Z,10.52
2024-02-17T17:23:45.458Z,10.53
2024-02-17T17:26:11.913Z,10.55
2024-02-17T17:28:39.875Z,10.53
2024-02-17T17:31:06.845Z,10.51
2024-02-17T17:33:34.102Z,10.51
2024-02-17T17:36:05.583Z,10.51
2024-02-17T17:38:32.052Z,10.52
2024-02-17T17:40:58.519Z,10.51
2024-02-17T17:43:25.066Z,10.48
2024-02-17T17:45:51.564Z,10.49
2024-02-17T17:48:18.202Z,10.45
2024-02-17T17:50:46.936Z,10.41
2024-02-17T17:53:15.868Z,10.39
2024-02-17T17:55:42.632Z,10.37
2024-02-17T17:58:09.444Z,10.37
2024-02-17T18:00:36.034Z,10.34
2024-02-17T18:03:02.657Z,10.35
2024-02-17T18:05:29.228Z,10.33
2024-02-17T18:07:55.818Z,10.35
2024-02-17T18:10:22.838Z,10.36
2024-02-17T18:12:49.540Z,10.33
2024-02-17T18:15:16.138Z,10.31
2024-02-17T18:17:43.988Z,10.32
2024-02-17T18:20:11.090Z,10.29
2024-02-17T18:22:37.517Z,10.27
2024-02-17T18:25:04.754Z,10.25
2024-02-17T18:27:31.271Z,10.25
2024-02-17T18:29:57.693Z,10.25
2024-02-17T18:32:24.424Z,10.22
2024-02-17T18:34:50.994Z,10.22
2024-02-17T18:37:17.450Z,10.22
2024-02-17T18:39:46.085Z,10.23
2024-02-17T18:42:13.045Z,10.23
2024-02-17T18:44:41.775Z,10.24
2024-02-17T18:47:08.466Z,10.23
2024-02-17T18:49:34.994Z,10.22
2024-02-17T18:52:04.216Z,10.23
2024-02-17T18:54:31.367Z,10.23
2024-02-17T18:56:57.855Z,10.21
2024-02-17T18:59:24.261Z,10.21
2024-02-17T19:01:50.743Z,10.20
2024-02-17T19:04:17.336Z,10.21
2024-02-17T19:06:44.021Z,10.19
2024-02-17T19:09:11.166Z,10.18
2024-02-17T19:11:37.836Z,10.18
2024-02-17T19:14:04.292Z,10.19
2024-02-17T19:16:30.806Z,10.18
2024-02-17T19:18:57.494Z,10.18
2024-02-17T19:21:24.053Z,10.16
2024-02-17T19:23:50.580Z,10.14
2024-02-17T19:26:17.051Z,10.11
2024-02-17T19:28:43.453Z,10.10
2024-02-17T19:31:09.963Z,10.11
2024-02-17T19:33:38.359Z,10.12
2024-02-17T19:36:06.043Z,10.13
2024-02-17T19:38:32.677Z,10.11
2024-02-17T19:41:00.845Z,10.11
2024-02-17T19:43:27.508Z,10.11
2024-02-17T19:45:53.993Z,10.11
2024-02-17T19:48:20.561Z,10.12
2024-02-17T19:50:47.153Z,10.11
2024-02-17T19:53:13.626Z,10.13
2024-02-17T19:55:40.353Z,10.13
2024-02-17T19:58:09.699Z,10.14
2024-02-17T20:00:36.828Z,10.14
2024-02-17T20:03:03.594Z,10.15
2024-02-17T20:05:30.218Z,10.13
2024-02-17T20:07:56.675Z,10.13
2024-02-17T20:10:23.123Z,10.14
2024-02-17T20:12:49.978Z,10.17
2024-02-17T20:15:19.390Z,10.16
2024-02-17T20:17:46.974Z,10.16
2024-02-17T20:20:17.027Z,10.17
2024-02-17T20:22:44.089Z,10.14
2024-02-17T20:25:11.832Z,10.14
2024-02-17T20:27:38.469Z,10.14
2024-02-17T20:30:05.652Z,10.14
2024-02-17T20:32:32.157Z,10.13
2024-02-17T20:34:58.633Z,10.14
2024-02-17T20:37:25.150Z,10.14
2024-02-17T20:39:51.778Z,10.13
2024-02-17T20:42:18.349Z,10.12
2024-02-17T20:44:44.822Z,10.11
2024-02-17T20:47:11.774Z,10.09
2024-02-17T20:49:38.325Z,10.07
2024-02-17T20:52:05.279Z,10.06
2024-02-17T20:54:31.852Z,10.04
2024-02-17T20:56:58.638Z,10.01
2024-02-17T20:59:25.050Z,10.01
2024-02-17T21:01:51.633Z,10.01
2024-02-17T21:04:19.370Z,9.99
2024-02-17T21:06:47.533Z,9.99
2024-02-17T21:09:15.377Z,9.99
2024-02-17T21:11:41.874Z,9.96
2024-02-17T21:14:10.040Z,9.96
2024-02-17T21:16:41.359Z,9.96
2024-02-17T21:19:08.034Z,9.96
2024-02-17T21:21:35.532Z,9.95
2024-02-17T21:24:02.206Z,9.95
2024-02-17T21:26:28.961Z,9.93
2024-02-17T21:29:00.956Z,9.93
2024-02-17T21:31:28.473Z,9.93
2024-02-17T21:33:55.287Z,9.93
2024-02-17T21:36:22.370Z,9.93
2024-02-17T21:38:48.817Z,9.94
2024-02-17T21:41:15.228Z,9.93
2024-02-17T21:43:41.690Z,9.94
2024-02-17T21:46:10.094Z,9.94
2024-02-17T21:48:36.700Z,9.94
2024-02-17T21:51:03.953Z,9.95
2024-02-17T21:53:30.511Z,9.94
2024-02-17T21:55:58.274Z,9.95
2024-02-17T21:58:24.839Z,9.95
2024-02-17T22:00:54.008Z,9.95
2024-02-17T22:03:20.917Z,9.95
2024-02-17T22:05:47.408Z,9.94
2024-02-17T22:08:13.867Z,9.93
2024-02-17T22:10:40.378Z,9.92
2024-02-17T22:13:06.869Z,9.92
2024-02-17T22:15:33.460Z,9.92
2024-02-17T22:18:00.156Z,9.93
2024-02-17T22:20:26.596Z,9.93
2024-02-17T22:22:53.089Z,9.93
2024-02-17T22:25:19.826Z,9.92
2024-02-17T22:27:46.393Z,9.90
2024-02-17T22:30:13.110Z,9.87
2024-02-17T22:32:39.763Z,9.85
2024-02-17T22:35:06.879Z,9.84
2024-02-17T22:37:33.459Z,9.84
2024-02-17T22:39:59.957Z,9.83
2024-02-17T22:42:26.593Z,9.79
2024-02-17T22:44:53.050Z,9.77
2024-02-17T22:47:19.479Z,9.73
2024-02-17T22:49:46.189Z,9.69
2024-02-17T22:52:12.827Z,9.64
2024-02-17T22:54:40.320Z,9.59
2024-02-17T22:57:07.866Z,9.55
2024-02-17T22:59:34.455Z,9.49
2024-02-17T23:02:01.308Z,9.47
2024-02-17T23:04:27.875Z,9.43
2024-02-17T23:06:54.405Z,9.40
2024-02-17T23:09:20.890Z,9.37
2024-02-17T23:11:47.412Z,9.38
2024-02-17T23:14:14.955Z,9.34
2024-02-17T23:16:44.153Z,9.34
2024-02-17T23:19:12.001Z,9.33
2024-02-17T23:21:45.489Z,9.32
2024-02-17T23:24:13.502Z,9.33
2024-02-17T23:26:39.910Z,9.35
2024-02-17T23:29:06.425Z,9.34
2024-02-17T23:31:33.100Z,9.35
2024-02-17T23:33:59.791Z,9.33
2024-02-17T23:36:26.490Z,9.35
2024-02-17T23:38:52.895Z,9.35
2024-02-17T23:41:19.343Z,9.35
2024-02-17T23:43:45.828Z,9.38
2024-02-17T23:46:12.346Z,9.39
2024-02-17T23:48:38.890Z,9.39
2024-02-17T23:51:06.291Z,9.39
2024-02-17T23:53:32.856Z,9.36
2024-02-17T23:55:59.487Z,9.36
2024-02-17T23:58:25.878Z,9.37
